Time;durP1;ratioP1;P1;durP2;ratioP2;P2;SDS_P1;SDS_P2;PMS_P1;PMS_P2;Temp;Humidity;BMP_temperature;BMP_pressure;BME280_temperature;BME280_humidity;BME280_pressure;Samples;Min_cycle;Max_cycle;Signal;HPM_P1;HPM_P2
2022/09/04 00:02:08;;;;;;;3.72;1.15;;;;;;;;;;5037471;28;20071;-65
2022/09/04 00:05:01;;;;;;;5.13;0.93;;;;;;;;;;5037212;28;20084;-64
2022/09/04 00:08:06;;;;;;;7.40;1.02;;;;;;;;;;5070221;28;20051;-64
2022/09/04 00:10:46;;;;;;;3.28;1.05;;;;;;;;;;5010510;28;20065;-64
2022/09/04 00:13:27;;;;;;;4.57;1.05;;;;;;;;;;4994724;28;20081;-65
2022/09/04 00:16:10;;;;;;;3.78;0.88;;;;;;;;;;5006558;28;20057;-65
2022/09/04 00:18:53;;;;;;;2.10;0.80;;;;;;;;;;4991106;28;20046;-65
2022/09/04 00:21:36;;;;;;;2.67;0.88;;;;;;;;;;4971129;28;20062;-65
2022/09/04 00:24:17;;;;;;;3.78;1.23;;;;;;;;;;4971232;28;20050;-65
2022/09/04 00:26:59;;;;;;;3.60;1.23;;;;;;;;;;4971463;28;20055;-64
2022/09/04 00:29:42;;;;;;;6.32;1.20;;;;;;;;;;4986505;28;20061;-65
2022/09/04 00:32:24;;;;;;;3.75;1.33;;;;;;;;;;4990781;28;20042;-65
2022/09/04 00:35:12;;;;;;;5.30;1.35;;;;;;;;;;4990537;28;20058;-65
2022/09/04 00:38:07;;;;;;;4.97;1.35;;;;;;;;;;4923106;28;20054;-64
2022/09/04 00:40:40;;;;;;;3.15;1.33;;;;;;;;;;4932491;29;20059;-65
2022/09/04 00:43:39;;;;;;;3.42;0.93;;;;;;;;;;4932166;29;20075;-65
2022/09/04 00:46:47;;;;;;;3.53;1.20;;;;;;;;;;4932403;29;20056;-64
2022/09/04 00:49:41;;;;;;;3.92;0.90;;;;;;;;;;4935491;29;20587;-64
2022/09/04 00:52:25;;;;;;;3.83;1.20;;;;;;;;;;4935810;29;20436;-64
2022/09/04 00:55:35;;;;;;;4.70;1.73;;;;;;;;;;4951501;28;20483;-64
2022/09/04 00:58:11;;;;;;;4.68;1.40;;;;;;;;;;4955430;28;20496;-64
2022/09/04 01:00:46;;;;;;;5.20;1.50;;;;;;;;;;4990404;28;20152;-64
2022/09/04 01:03:29;;;;;;;5.10;1.70;;;;;;;;;;4990302;28;20058;-64
2022/09/04 01:06:28;;;;;;;5.45;1.98;;;;;;;;;;4974230;28;20058;-64
2022/09/04 01:09:17;;;;;;;4.10;1.65;;;;;;;;;;4989787;28;20058;-64
2022/09/04 01:12:19;;;;;;;6.35;2.15;;;;;;;;;;4974080;28;20126;-64
2022/09/04 01:15:23;;;;;;;3.05;1.30;;;;;;;;;;4989860;28;20062;-64
2022/09/04 01:18:21;;;;;;;5.40;1.27;;;;;;;;;;4983417;28;20057;-64
2022/09/04 01:21:13;;;;;;;4.70;1.58;;;;;;;;;;5025526;28;20301;-64
2022/09/04 01:24:05;;;;;;;4.10;1.60;;;;;;;;;;5023159;28;20065;-64
2022/09/04 01:27:01;;;;;;;5.57;1.75;;;;;;;;;;5032322;28;20060;-64
2022/09/04 01:29:41;;;;;;;5.60;1.60;;;;;;;;;;5032794;28;20053;-64
2022/09/04 01:32:18;;;;;;;3.22;1.38;;;;;;;;;;5048966;28;20541;-65
2022/09/04 01:35:02;;;;;;;5.18;1.33;;;;;;;;;;5048912;28;20055;-65
2022/09/04 01:37:35;;;;;;;4.07;1.20;;;;;;;;;;5048974;28;20584;-65
2022/09/04 01:40:14;;;;;;;2.85;1.33;;;;;;;;;;5048956;28;20053;-65
2022/09/04 01:42:52;;;;;;;3.20;1.13;;;;;;;;;;5065013;28;20044;-65
2022/09/04 01:45:51;;;;;;;1.33;0.63;;;;;;;;;;5048846;28;20057;-65
2022/09/04 01:48:39;;;;;;;4.90;1.02;;;;;;;;;;5048637;28;20528;-65
2022/09/04 01:51:20;;;;;;;3.88;1.30;;;;;;;;;;5048677;28;20405;-65
2022/09/04 01:54:24;;;;;;;3.65;1.63;;;;;;;;;;5048952;28;20417;-65
2022/09/04 01:57:06;;;;;;;;;;;;;;;;;;5075463;28;20060;-65
2022/09/04 01:59:44;;;;;;;3.85;1.20;;;;;;;;;;5075260;28;19943;-65
2022/09/04 02:02:21;;;;;;;4.93;1.15;;;;;;;;;;5074992;28;20511;-65
2022/09/04 02:05:19;;;;;;;6.30;1.52;;;;;;;;;;5059021;28;20044;-65
2022/09/04 02:07:53;;;;;;;3.85;1.50;;;;;;;;;;5092903;28;20056;-65
2022/09/04 02:10:42;;;;;;;3.17;1.30;;;;;;;;;;5092824;28;20539;-65
2022/09/04 02:13:39;;;;;;;5.13;1.85;;;;;;;;;;5092972;28;20425;-65
2022/09/04 02:16:20;;;;;;;2.88;1.15;;;;;;;;;;5092657;28;20063;-65
2022/09/04 02:19:19;;;;;;;4.38;1.42;;;;;;;;;;5071884;28;20393;-65
2022/09/04 02:22:00;;;;;;;;;;;;;;;;;;5072829;28;20048;-65
2022/09/04 02:24:56;;;;;;;4.20;1.42;;;;;;;;;;5038639;28;19920;-65
2022/09/04 02:27:43;;;;;;;4.43;1.33;;;;;;;;;;5012374;28;20065;-65
2022/09/04 02:30:18;;;;;;;4.72;1.30;;;;;;;;;;5012433;28;20093;-65
2022/09/04 02:33:24;;;;;;;7.13;1.80;;;;;;;;;;5012566;28;20066;-65
2022/09/04 02:36:15;;;;;;;3.20;1.17;;;;;;;;;;5012137;28;20065;-65
2022/09/04 02:38:50;;;;;;;4.75;1.33;;;;;;;;;;5012100;28;20421;-65
2022/09/04 02:41:36;;;;;;;5.00;1.40;;;;;;;;;;4995516;28;20058;-65
2022/09/04 02:44:29;;;;;;;5.88;1.30;;;;;;;;;;4973104;28;20065;-64
2022/09/04 02:47:44;;;;;;;7.10;1.55;;;;;;;;;;4992212;28;20121;-65
2022/09/04 02:50:33;;;;;;;3.80;1.17;;;;;;;;;;4972966;28;20132;-66
2022/09/04 02:53:24;;;;;;;7.32;1.30;;;;;;;;;;4972840;28;20066;-65
2022/09/04 02:56:26;;;;;;;7.38;1.63;;;;;;;;;;4943354;29;20063;-65
2022/09/04 02:59:20;;;;;;;3.45;1.30;;;;;;;;;;4953242;28;20066;-66
2022/09/04 03:01:58;;;;;;;5.88;1.38;;;;;;;;;;4953541;28;20070;-65
2022/09/04 03:04:59;;;;;;;4.85;1.60;;;;;;;;;;4971153;28;20521;-65
2022/09/04 03:07:55;;;;;;;4.90;2.00;;;;;;;;;;4917895;29;20054;-65
2022/09/04 03:11:05;;;;;;;5.28;1.98;;;;;;;;;;4915172;29;20452;-65
2022/09/04 03:13:51;;;;;;;7.32;1.48;;;;;;;;;;4915147;29;20068;-65
2022/09/04 03:16:29;;;;;;;4.72;1.58;;;;;;;;;;4880267;29;20065;-65
2022/09/04 03:19:43;;;;;;;5.93;1.73;;;;;;;;;;4858267;29;20416;-65
2022/09/04 03:22:47;;;;;;;5.28;1.27;;;;;;;;;;4858836;29;20054;-65
2022/09/04 03:26:15;;;;;;;4.95;1.55;;;;;;;;;;4890158;29;20053;-66
2022/09/04 03:29:23;;;;;;;5.22;1.25;;;;;;;;;;4858150;29;20053;-65
2022/09/04 03:32:40;;;;;;;4.05;1.90;;;;;;;;;;4895281;29;20753;-65
2022/09/04 03:35:24;;;;;;;3.40;1.17;;;;;;;;;;4880389;29;20053;-65
2022/09/04 03:38:04;;;;;;;4.13;1.70;;;;;;;;;;4895687;29;20044;-65
2022/09/04 03:41:17;;;;;;;5.65;1.77;;;;;;;;;;4880543;29;20068;-65
2022/09/04 03:44:26;;;;;;;7.10;1.50;;;;;;;;;;4862786;29;20444;-65
2022/09/04 03:47:30;;;;;;;6.22;1.45;;;;;;;;;;4876938;29;20060;-65
2022/09/04 03:50:29;;;;;;;3.50;0.90;;;;;;;;;;4877156;29;20053;-65
2022/09/04 03:53:18;;;;;;;7.30;1.30;;;;;;;;;;4876967;29;20072;-65
2022/09/04 03:56:02;;;;;;;4.30;1.30;;;;;;;;;;4846017;29;20057;-65
2022/09/04 03:58:41;;;;;;;2.95;1.50;;;;;;;;;;4861398;29;20060;-65
2022/09/04 04:01:26;;;;;;;4.00;1.55;;;;;;;;;;4845933;29;20414;-65
2022/09/04 04:03:59;;;;;;;;;;;;;;;;;;4895656;29;20065;-65
2022/09/04 04:07:00;;;;;;;3.47;1.05;;;;;;;;;;4913955;29;19931;-65
2022/09/04 04:09:42;;;;;;;2.65;0.93;;;;;;;;;;4876220;29;20049;-65
2022/09/04 04:12:27;;;;;;;3.10;1.35;;;;;;;;;;4908488;29;20428;-65
2022/09/04 04:15:09;;;;;;;2.92;0.95;;;;;;;;;;4952355;29;20551;-65
2022/09/04 04:18:23;;;;;;;2.15;0.82;;;;;;;;;;4951791;28;20059;-65
2022/09/04 04:20:56;;;;;;;7.70;1.65;;;;;;;;;;5010727;28;20058;-65
2022/09/04 04:23:54;;;;;;;7.55;1.27;;;;;;;;;;5010437;28;20066;-65
2022/09/04 04:26:46;;;;;;;3.30;1.15;;;;;;;;;;5010441;28;20049;-65
2022/09/04 04:29:36;;;;;;;2.80;1.08;;;;;;;;;;4997077;28;20513;-65
2022/09/04 04:32:30;;;;;;;6.82;1.70;;;;;;;;;;5010232;28;20058;-65
2022/09/04 04:35:12;;;;;;;3.97;1.10;;;;;;;;;;4977808;28;20157;-65
2022/09/04 04:38:04;;;;;;;4.00;1.85;;;;;;;;;;5010063;28;20050;-65
2022/09/04 04:40:53;;;;;;;2.88;1.13;;;;;;;;;;5010009;28;20060;-65
2022/09/04 04:43:33;;;;;;;3.22;1.25;;;;;;;;;;4973797;28;20054;-65
2022/09/04 04:46:12;;;;;;;5.75;1.15;;;;;;;;;;4973773;28;20529;-65
2022/09/04 04:49:12;;;;;;;4.97;1.08;;;;;;;;;;4970931;28;20416;-65
2022/09/04 04:51:46;;;;;;;2.30;1.05;;;;;;;;;;4957754;28;20050;-65
2022/09/04 04:54:52;;;;;;;2.72;1.20;;;;;;;;;;5006357;28;20065;-65
2022/09/04 04:57:57;;;;;;;3.08;0.95;;;;;;;;;;5015102;28;20056;-65
2022/09/04 05:01:08;;;;;;;3.78;0.85;;;;;;;;;;5079901;28;20047;-65
2022/09/04 05:03:57;;;;;;;3.42;1.33;;;;;;;;;;4928489;29;20052;-65
2022/09/04 05:06:30;;;;;;;3.55;0.98;;;;;;;;;;4928929;29;20417;-65
2022/09/04 05:09:24;;;;;;;2.70;1.17;;;;;;;;;;4912870;29;20055;-66
2022/09/04 05:12:16;;;;;;;3.35;1.45;;;;;;;;;;4913212;29;20060;-65
2022/09/04 05:15:02;;;;;;;3.70;1.17;;;;;;;;;;4913238;29;20078;-65
2022/09/04 05:17:51;;;;;;;2.95;1.10;;;;;;;;;;4913220;29;20509;-65
2022/09/04 05:20:42;;;;;;;2.55;0.95;;;;;;;;;;4894135;29;20052;-65
2022/09/04 05:23:21;;;;;;;4.22;1.10;;;;;;;;;;4913058;29;20067;-65
2022/09/04 05:26:22;;;;;;;2.30;1.02;;;;;;;;;;4912913;29;20063;-65
2022/09/04 05:29:02;;;;;;;4.20;1.30;;;;;;;;;;4907198;29;20063;-65
2022/09/04 05:31:59;;;;;;;2.40;0.93;;;;;;;;;;4931841;29;20518;-64
2022/09/04 05:35:07;;;;;;;4.07;1.00;;;;;;;;;;4860026;29;20052;-65
2022/09/04 05:37:54;;;;;;;3.03;1.02;;;;;;;;;;4844536;29;20053;-64
2022/09/04 05:40:49;;;;;;;4.07;1.23;;;;;;;;;;4903743;28;20063;-64
2022/09/04 05:43:48;;;;;;;2.17;1.05;;;;;;;;;;4970422;28;20059;-64
2022/09/04 05:46:50;;;;;;;2.88;1.10;;;;;;;;;;4983963;28;20053;-64
2022/09/04 05:50:07;;;;;;;7.88;1.67;;;;;;;;;;5009047;28;20405;-65
2022/09/04 05:52:56;;;;;;;2.72;0.80;;;;;;;;;;4934242;29;20059;-64
2022/09/04 05:55:52;;;;;;;3.03;1.00;;;;;;;;;;4950746;29;20059;-64
2022/09/04 05:58:47;;;;;;;4.18;1.35;;;;;;;;;;4925500;29;20079;-64
2022/09/04 06:01:37;;;;;;;3.00;1.02;;;;;;;;;;4925622;29;20067;-65
2022/09/04 06:04:20;;;;;;;3.50;1.33;;;;;;;;;;4915954;29;20060;-65
2022/09/04 06:06:59;;;;;;;4.07;1.77;;;;;;;;;;4912581;29;20402;-64
2022/09/04 06:09:53;;;;;;;3.58;1.10;;;;;;;;;;4900571;29;20061;-64
2022/09/04 06:12:52;;;;;;;2.88;1.27;;;;;;;;;;4903432;29;20056;-64
2022/09/04 06:15:52;;;;;;;3.75;1.10;;;;;;;;;;4897395;29;20056;-64
2022/09/04 06:18:35;;;;;;;3.55;1.15;;;;;;;;;;4912671;29;20063;-64
2022/09/04 06:21:09;;;;;;;8.23;1.15;;;;;;;;;;4912545;29;20055;-64
2022/09/04 06:24:11;;;;;;;2.42;0.90;;;;;;;;;;4912555;29;20079;-64
2022/09/04 06:27:13;;;;;;;3.78;1.38;;;;;;;;;;4939497;28;20059;-64
2022/09/04 06:30:13;;;;;;;3.80;1.17;;;;;;;;;;4936463;29;20588;-64
2022/09/04 06:33:04;;;;;;;2.58;1.10;;;;;;;;;;4862469;29;20056;-64
2022/09/04 06:35:35;;;;;;;;;;;;;;;;;;4894089;29;20672;-64
2022/09/04 06:38:25;;;;;;;4.00;1.00;;;;;;;;;;4893724;29;20388;-64
2022/09/04 06:41:17;;;;;;;2.30;0.90;;;;;;;;;;4895097;29;20060;-64
2022/09/04 06:44:21;;;;;;;8.60;2.15;;;;;;;;;;4905829;29;20101;-65
2022/09/04 06:47:00;;;;;;;2.55;1.13;;;;;;;;;;4934906;29;20420;-64
2022/09/04 06:49:37;;;;;;;6.43;1.45;;;;;;;;;;4939964;29;20063;-64
2022/09/04 06:52:28;;;;;;;3.72;1.33;;;;;;;;;;4954033;29;20058;-65
2022/09/04 06:55:23;;;;;;;4.07;1.30;;;;;;;;;;4938166;29;20075;-64
2022/09/04 06:58:05;;;;;;;5.03;1.52;;;;;;;;;;4937880;29;20530;-64
2022/09/04 07:01:00;;;;;;;3.17;1.42;;;;;;;;;;4934487;29;20063;-65
2022/09/04 07:04:09;;;;;;;3.65;1.45;;;;;;;;;;4953114;29;20106;-64
2022/09/04 07:06:50;;;;;;;7.03;1.42;;;;;;;;;;4953579;28;20055;-64
2022/09/04 07:09:27;;;;;;;4.13;1.55;;;;;;;;;;4994975;28;20441;-64
2022/09/04 07:12:32;;;;;;;6.75;1.10;;;;;;;;;;5015244;28;20057;-64
2022/09/04 07:15:40;;;;;;;4.72;1.25;;;;;;;;;;5031588;28;20046;-64
2022/09/04 07:18:24;;;;;;;4.78;1.52;;;;;;;;;;4934113;29;20059;-64
2022/09/04 07:21:43;;;;;;;7.03;1.48;;;;;;;;;;4934309;29;20067;-65
2022/09/04 07:24:48;;;;;;;4.90;1.65;;;;;;;;;;4915098;29;20405;-64
2022/09/04 07:27:47;;;;;;;3.83;1.30;;;;;;;;;;4899714;29;20587;-65
2022/09/04 07:30:21;;;;;;;10.40;1.88;;;;;;;;;;4914740;29;20437;-64
2022/09/04 07:32:57;;;;;;;4.13;1.00;;;;;;;;;;4899218;29;20064;-64
2022/09/04 07:35:37;;;;;;;3.30;1.20;;;;;;;;;;4946463;29;20055;-64
2022/09/04 07:38:34;;;;;;;5.93;1.40;;;;;;;;;;4942205;29;20054;-64
2022/09/04 07:41:15;;;;;;;3.88;1.50;;;;;;;;;;4937020;28;20059;-65
2022/09/04 07:44:02;;;;;;;3.75;1.70;;;;;;;;;;4953017;29;20059;-65
2022/09/04 07:46:48;;;;;;;3.97;1.42;;;;;;;;;;4952934;28;20066;-64
2022/09/04 07:49:35;;;;;;;4.93;1.40;;;;;;;;;;4920584;29;20040;-64
2022/09/04 07:52:37;;;;;;;3.10;1.00;;;;;;;;;;4951749;28;20523;-64
2022/09/04 07:55:22;;;;;;;2.80;1.02;;;;;;;;;;4952557;29;20051;-64
2022/09/04 07:58:18;;;;;;;2.25;1.10;;;;;;;;;;4952839;29;20058;-64
2022/09/04 08:00:49;;;;;;;5.80;1.40;;;;;;;;;;4947178;29;20056;-64
2022/09/04 08:03:43;;;;;;;5.38;1.73;;;;;;;;;;4952714;29;20059;-64
2022/09/04 08:06:37;;;;;;;4.93;1.58;;;;;;;;;;4964413;28;20531;-64
2022/09/04 08:09:37;;;;;;;3.53;1.65;;;;;;;;;;4975388;28;20581;-64
2022/09/04 08:12:13;;;;;;;3.58;1.50;;;;;;;;;;4974776;28;20085;-65
2022/09/04 08:15:05;;;;;;;4.10;1.70;;;;;;;;;;4979429;28;20058;-64
2022/09/04 08:18:00;;;;;;;5.05;1.20;;;;;;;;;;5000945;28;20476;-64
2022/09/04 08:20:58;;;;;;;3.28;1.30;;;;;;;;;;5033667;28;20049;-64
2022/09/04 08:23:40;;;;;;;3.25;1.17;;;;;;;;;;5050397;28;20510;-64
2022/09/04 08:26:29;;;;;;;5.25;1.00;;;;;;;;;;5053733;28;20059;-65
2022/09/04 08:29:01;;;;;;;4.20;1.33;;;;;;;;;;5070191;28;20048;-64
2022/09/04 08:31:54;;;;;;;5.32;1.50;;;;;;;;;;5069951;28;20532;-64
2022/09/04 08:34:41;;;;;;;6.55;2.00;;;;;;;;;;5070040;28;20048;-63
2022/09/04 08:37:32;;;;;;;3.53;1.30;;;;;;;;;;5069876;28;20052;-64
2022/09/04 08:40:30;;;;;;;4.70;1.45;;;;;;;;;;5069930;28;20538;-64
2022/09/04 08:43:38;;;;;;;5.07;1.58;;;;;;;;;;5070027;28;20053;-64
2022/09/04 08:46:28;;;;;;;3.03;1.33;;;;;;;;;;5069848;28;20056;-64
2022/09/04 08:49:36;;;;;;;4.43;1.67;;;;;;;;;;5069528;28;20064;-64
2022/09/04 08:52:26;;;;;;;4.57;1.70;;;;;;;;;;5049381;28;20049;-65
2022/09/04 08:55:04;;;;;;;5.53;1.60;;;;;;;;;;5000633;28;20575;-64
2022/09/04 08:57:47;;;;;;;3.75;1.40;;;;;;;;;;5031017;28;20056;-64
2022/09/04 09:00:48;;;;;;;6.75;2.05;;;;;;;;;;5033417;28;20087;-65
2022/09/04 09:04:05;;;;;;;6.57;2.03;;;;;;;;;;4990090;28;20506;-64
2022/09/04 09:07:15;;;;;;;4.80;1.40;;;;;;;;;;4951514;29;20058;-64
2022/09/04 09:09:54;;;;;;;6.35;1.33;;;;;;;;;;4937168;29;20536;-64
2022/09/04 09:13:06;;;;;;;4.35;1.55;;;;;;;;;;4932319;29;20063;-65
2022/09/04 09:15:46;;;;;;;5.25;1.70;;;;;;;;;;4857112;29;20049;-64
2022/09/04 09:18:40;;;;;;;5.18;1.77;;;;;;;;;;4857413;29;20061;-64
2022/09/04 09:21:31;;;;;;;3.20;1.30;;;;;;;;;;4856952;29;20097;-64
2022/09/04 09:24:29;;;;;;;3.85;1.58;;;;;;;;;;4875438;29;20052;-64
2022/09/04 09:27:03;;;;;;;5.13;1.55;;;;;;;;;;4829585;29;20049;-65
2022/09/04 09:29:48;;;;;;;4.90;1.92;;;;;;;;;;4871420;29;20065;-64
2022/09/04 09:32:38;;;;;;;6.22;1.60;;;;;;;;;;4875389;29;20053;-64
2022/09/04 09:35:22;;;;;;;4.05;1.80;;;;;;;;;;4875400;29;20541;-64
2022/09/04 09:38:13;;;;;;;3.15;1.30;;;;;;;;;;4860042;29;20053;-65
2022/09/04 09:41:18;;;;;;;2.78;1.05;;;;;;;;;;4914008;29;20060;-65
2022/09/04 09:44:07;;;;;;;2.75;1.27;;;;;;;;;;4843482;29;20431;-64
2022/09/04 09:47:00;;;;;;;2.45;1.13;;;;;;;;;;4871875;29;20061;-64
2022/09/04 09:49:52;;;;;;;2.67;1.05;;;;;;;;;;4872017;29;20053;-65
2022/09/04 09:53:20;;;;;;;5.20;2.03;;;;;;;;;;4853405;29;20230;-65
2022/09/04 09:56:15;;;;;;;5.22;1.52;;;;;;;;;;4874977;29;20068;-65
2022/09/04 09:59:29;;;;;;;3.92;1.38;;;;;;;;;;4875355;29;20136;-65
2022/09/04 10:02:43;;;;;;;3.28;1.27;;;;;;;;;;4843672;29;20073;-66
2022/09/04 10:05:58;;;;;;;3.38;1.30;;;;;;;;;;4837574;29;20065;-65
2022/09/04 10:09:01;;;;;;;7.93;1.73;;;;;;;;;;4837462;29;20058;-64
2022/09/04 10:11:41;;;;;;;4.32;1.48;;;;;;;;;;4855990;29;20061;-64
2022/09/04 10:14:50;;;;;;;4.60;1.45;;;;;;;;;;4841202;29;20061;-64
2022/09/04 10:17:34;;;;;;;5.30;1.40;;;;;;;;;;4808159;29;20050;-65
2022/09/04 10:20:23;;;;;;;5.72;1.95;;;;;;;;;;4808327;29;20566;-65
2022/09/04 10:23:36;;;;;;;7.95;2.83;;;;;;;;;;4808348;29;20058;-65
2022/09/04 10:26:13;;;;;;;5.75;1.60;;;;;;;;;;4860018;29;20072;-65
2022/09/04 10:29:27;;;;;;;5.63;1.70;;;;;;;;;;4860051;29;20049;-65
2022/09/04 10:32:30;;;;;;;4.65;1.90;;;;;;;;;;4814168;29;20065;-65
2022/09/04 10:35:24;;;;;;;4.30;1.23;;;;;;;;;;4805155;29;20393;-66
2022/09/04 10:38:18;;;;;;;2.45;1.00;;;;;;;;;;4804369;29;20054;-65
2022/09/04 10:41:18;;;;;;;4.65;1.73;;;;;;;;;;4804975;29;20047;-65
2022/09/04 10:44:01;;;;;;;5.00;1.35;;;;;;;;;;4822610;29;20050;-65
2022/09/04 10:46:48;;;;;;;7.55;2.35;;;;;;;;;;4807987;29;20380;-65
2022/09/04 10:49:30;;;;;;;4.68;2.20;;;;;;;;;;4821127;29;20049;-65
2022/09/04 10:52:20;;;;;;;4.32;1.73;;;;;;;;;;4822599;29;20070;-64
2022/09/04 10:55:27;;;;;;;4.65;1.67;;;;;;;;;;4841048;29;20057;-65
2022/09/04 10:58:14;;;;;;;4.07;1.67;;;;;;;;;;4841261;29;20054;-65
2022/09/04 11:01:09;;;;;;;5.18;1.95;;;;;;;;;;4840848;29;20062;-65
2022/09/04 11:03:46;;;;;;;4.18;1.50;;;;;;;;;;4911735;29;20060;-66
2022/09/04 11:06:52;;;;;;;5.95;1.40;;;;;;;;;;4887461;29;20637;-66
2022/09/04 11:09:55;;;;;;;6.03;1.73;;;;;;;;;;4991439;28;20061;-66
2022/09/04 11:12:48;;;;;;;4.28;1.40;;;;;;;;;;4975959;28;20537;-66
2022/09/04 11:15:46;;;;;;;5.57;1.58;;;;;;;;;;5000658;28;20053;-66
2022/09/04 11:18:22;;;;;;;4.70;1.20;;;;;;;;;;5051636;28;20523;-68
2022/09/04 11:21:15;;;;;;;3.97;1.42;;;;;;;;;;5031248;28;20065;-67
2022/09/04 11:23:47;;;;;;;;;;;;;;;;;;5063456;28;20048;-68
2022/09/04 11:26:53;;;;;;;7.82;2.35;;;;;;;;;;5021903;28;19931;-68
2022/09/04 11:29:33;;;;;;;5.60;2.13;;;;;;;;;;5071469;28;20083;-68
2022/09/04 11:32:24;;;;;;;11.10;3.58;;;;;;;;;;5070829;28;20052;-68
2022/09/04 11:35:12;;;;;;;8.25;2.58;;;;;;;;;;5071320;28;20055;-67
2022/09/04 11:37:55;;;;;;;6.40;2.50;;;;;;;;;;5070912;28;20063;-66
2022/09/04 11:40:36;;;;;;;7.68;3.45;;;;;;;;;;5071007;28;20078;-66
2022/09/04 11:43:51;;;;;;;6.32;2.47;;;;;;;;;;5071039;28;20512;-66
2022/09/04 11:46:25;;;;;;;6.40;2.08;;;;;;;;;;5071183;28;20516;-65
2022/09/04 11:49:12;;;;;;;4.93;1.98;;;;;;;;;;5070988;28;20059;-65
2022/09/04 11:52:05;;;;;;;8.90;2.83;;;;;;;;;;5070664;28;20052;-65
2022/09/04 11:55:03;;;;;;;7.15;2.22;;;;;;;;;;5070930;28;20737;-65
2022/09/04 11:57:54;;;;;;;6.20;2.20;;;;;;;;;;5023575;28;20045;-65
2022/09/04 12:00:27;;;;;;;6.38;2.70;;;;;;;;;;5091196;28;20048;-65
2022/09/04 12:03:35;;;;;;;8.00;2.47;;;;;;;;;;5073935;28;20055;-66
2022/09/04 12:06:42;;;;;;;8.32;1.80;;;;;;;;;;5010947;28;20634;-65
2022/09/04 12:09:39;;;;;;;11.38;1.92;;;;;;;;;;4990941;28;20042;-66
2022/09/04 12:12:15;;;;;;;7.65;2.17;;;;;;;;;;4991254;28;20061;-65
2022/09/04 12:15:32;;;;;;;3.58;1.00;;;;;;;;;;4991554;28;20073;-65
2022/09/04 12:18:40;;;;;;;6.38;2.30;;;;;;;;;;4932919;29;20055;-65
2022/09/04 12:21:47;;;;;;;3.38;1.38;;;;;;;;;;4901490;29;20055;-65
2022/09/04 12:24:59;;;;;;;7.00;2.45;;;;;;;;;;4933138;29;20070;-65
2022/09/04 12:27:53;;;;;;;8.40;1.90;;;;;;;;;;4858083;29;20065;-65
2022/09/04 12:30:51;;;;;;;6.15;1.70;;;;;;;;;;4857863;29;20068;-67
2022/09/04 12:33:58;;;;;;;4.90;1.65;;;;;;;;;;4827184;29;20054;-65
2022/09/04 12:36:45;;;;;;;6.20;2.85;;;;;;;;;;4857670;29;20101;-65
2022/09/04 12:39:40;;;;;;;6.45;2.13;;;;;;;;;;4857375;29;20171;-65
2022/09/04 12:42:48;;;;;;;3.25;1.40;;;;;;;;;;4859217;29;20522;-65
2022/09/04 12:45:39;;;;;;;4.05;1.27;;;;;;;;;;4894887;29;20052;-66
2022/09/04 12:48:17;;;;;;;3.10;1.08;;;;;;;;;;4855099;29;20052;-66
2022/09/04 12:51:08;;;;;;;6.32;1.75;;;;;;;;;;4898153;29;20529;-66
2022/09/04 12:53:52;;;;;;;5.45;1.95;;;;;;;;;;4922412;29;20754;-65
2022/09/04 12:56:48;;;;;;;4.53;1.90;;;;;;;;;;4935755;29;20055;-66
2022/09/04 12:59:44;;;;;;;3.67;1.23;;;;;;;;;;4951903;29;20491;-66
2022/09/04 13:02:17;;;;;;;2.35;1.05;;;;;;;;;;4904830;29;20059;-66
2022/09/04 13:05:11;;;;;;;2.55;1.00;;;;;;;;;;5019359;28;20045;-66
2022/09/04 13:08:05;;;;;;;4.90;1.85;;;;;;;;;;5029767;28;20071;-67
2022/09/04 13:11:03;;;;;;;4.03;1.50;;;;;;;;;;5029501;28;20061;-66
2022/09/04 13:14:10;;;;;;;4.60;1.13;;;;;;;;;;4996610;28;20437;-66
2022/09/04 13:17:10;;;;;;;4.60;1.23;;;;;;;;;;5045519;28;20429;-66
2022/09/04 13:19:58;;;;;;;4.63;2.00;;;;;;;;;;5009594;28;20545;-65
2022/09/04 13:22:56;;;;;;;3.58;1.58;;;;;;;;;;4999660;28;20066;-67
2022/09/04 13:25:41;;;;;;;5.78;2.65;;;;;;;;;;4973980;28;20061;-66
2022/09/04 13:28:36;;;;;;;4.97;2.40;;;;;;;;;;4942200;28;20053;-67
2022/09/04 13:31:44;;;;;;;7.05;2.70;;;;;;;;;;4989899;28;20050;-65
2022/09/04 13:34:27;;;;;;;5.13;1.85;;;;;;;;;;4989970;28;20089;-66
2022/09/04 13:37:26;;;;;;;4.22;1.58;;;;;;;;;;4989653;28;20050;-66
2022/09/04 13:40:06;;;;;;;6.55;2.13;;;;;;;;;;5009239;28;20050;-66
2022/09/04 13:43:02;;;;;;;4.85;1.38;;;;;;;;;;4969895;28;20042;-66
2022/09/04 13:45:46;;;;;;;3.53;1.10;;;;;;;;;;4985281;28;20058;-66
2022/09/04 13:48:36;;;;;;;3.03;1.10;;;;;;;;;;4957506;28;20069;-66
2022/09/04 13:51:13;;;;;;;3.13;1.10;;;;;;;;;;4991885;28;20069;-66
2022/09/04 13:54:07;;;;;;;3.88;1.17;;;;;;;;;;4993582;28;20521;-68
2022/09/04 13:56:52;;;;;;;4.90;2.28;;;;;;;;;;5002509;28;20046;-67
2022/09/04 13:59:23;;;;;;;4.00;1.52;;;;;;;;;;4996834;28;20065;-67
2022/09/04 14:02:01;;;;;;;4.50;2.00;;;;;;;;;;5013312;28;20062;-67
2022/09/04 14:04:42;;;;;;;6.88;2.38;;;;;;;;;;4996585;28;20073;-66
2022/09/04 14:07:28;;;;;;;2.80;1.20;;;;;;;;;;5012932;28;20057;-68
2022/09/04 14:10:04;;;;;;;4.30;1.35;;;;;;;;;;5013173;28;20757;-68
2022/09/04 14:12:50;;;;;;;4.70;1.63;;;;;;;;;;4965311;28;20062;-70
2022/09/04 14:15:31;;;;;;;5.30;1.52;;;;;;;;;;5013008;28;20056;-68
2022/09/04 14:18:15;;;;;;;3.75;1.48;;;;;;;;;;4993577;28;20437;-68
2022/09/04 14:20:56;;;;;;;4.72;1.90;;;;;;;;;;5044317;28;20412;-67
2022/09/04 14:23:47;;;;;;;7.03;1.70;;;;;;;;;;5056891;28;20056;-68
2022/09/04 14:26:49;;;;;;;5.55;1.52;;;;;;;;;;5072548;28;20568;-68
2022/09/04 14:29:30;;;;;;;7.15;2.00;;;;;;;;;;5012720;28;20061;-69
2022/09/04 14:32:21;;;;;;;4.30;1.52;;;;;;;;;;4973371;28;20058;-68
2022/09/04 14:35:17;;;;;;;6.70;1.88;;;;;;;;;;4955082;28;20159;-66
2022/09/04 14:38:18;;;;;;;4.20;1.42;;;;;;;;;;4992952;28;20058;-68
2022/09/04 14:41:34;;;;;;;5.35;1.50;;;;;;;;;;4992882;28;20054;-69
2022/09/04 14:44:26;;;;;;;3.30;1.05;;;;;;;;;;4935036;29;20452;-69
2022/09/04 14:47:46;;;;;;;5.13;1.58;;;;;;;;;;4935038;29;20059;-68
2022/09/04 14:50:18;;;;;;;3.08;1.50;;;;;;;;;;4915811;29;20060;-68
2022/09/04 14:53:04;;;;;;;4.55;1.60;;;;;;;;;;4915694;29;20064;-68
2022/09/04 14:56:06;;;;;;;3.88;1.55;;;;;;;;;;4915593;29;20056;-70
2022/09/04 14:59:00;;;;;;;4.32;1.67;;;;;;;;;;4934658;29;20397;-69
2022/09/04 15:01:36;;;;;;;4.05;1.10;;;;;;;;;;4934091;29;20062;-68
2022/09/04 15:04:23;;;;;;;7.35;2.05;;;;;;;;;;4934640;29;20064;-69
2022/09/04 15:06:58;;;;;;;3.50;1.50;;;;;;;;;;4947132;29;20063;-69
2022/09/04 15:09:46;;;;;;;5.28;1.52;;;;;;;;;;4935371;28;20061;-68
2022/09/04 15:12:33;;;;;;;3.33;1.10;;;;;;;;;;5012201;28;20053;-68
2022/09/04 15:15:45;;;;;;;3.97;1.48;;;;;;;;;;4979140;28;20061;-68
2022/09/04 15:18:25;;;;;;;3.38;1.55;;;;;;;;;;4992170;28;20054;-71
2022/09/04 15:21:03;;;;;;;2.45;1.25;;;;;;;;;;4963968;28;20409;-70
2022/09/04 15:24:08;;;;;;;3.13;1.30;;;;;;;;;;4979766;28;20061;-68
2022/09/04 15:27:05;;;;;;;5.05;1.50;;;;;;;;;;4956405;28;20067;-69
2022/09/04 15:29:44;;;;;;;2.15;0.75;;;;;;;;;;4968813;28;20063;-68
2022/09/04 15:32:24;;;;;;;2.53;0.95;;;;;;;;;;4937762;28;20051;-69
2022/09/04 15:35:30;;;;;;;1.67;0.50;;;;;;;;;;4953158;28;20055;-69
2022/09/04 15:38:05;;;;;;;4.10;1.05;;;;;;;;;;4953347;28;20055;-68
2022/09/04 15:40:45;;;;;;;4.07;1.55;;;;;;;;;;4953271;28;20066;-69
2022/09/04 15:43:50;;;;;;;3.50;1.40;;;;;;;;;;4953000;28;20066;-71
2022/09/04 15:46:40;;;;;;;3.80;1.35;;;;;;;;;;4937206;28;20047;-69
2022/09/04 15:49:21;;;;;;;3.60;1.20;;;;;;;;;;4953064;28;20051;-68
2022/09/04 15:51:54;;;;;;;3.25;1.15;;;;;;;;;;4952969;28;20063;-69
2022/09/04 15:55:12;;;;;;;4.35;1.65;;;;;;;;;;4950777;28;20058;-68
2022/09/04 15:57:47;;;;;;;5.05;1.20;;;;;;;;;;4877152;29;20061;-69
2022/09/04 16:00:26;;;;;;;4.30;1.40;;;;;;;;;;4877258;29;20064;-68
2022/09/04 16:03:14;;;;;;;3.20;0.90;;;;;;;;;;4900709;29;20524;-69
2022/09/04 16:05:50;;;;;;;3.13;1.17;;;;;;;;;;4916310;29;20075;-68
2022/09/04 16:08:24;;;;;;;1.50;0.60;;;;;;;;;;4952748;28;20495;-67
2022/09/04 16:11:00;;;;;;;1.92;0.80;;;;;;;;;;4952628;28;20082;-70
2022/09/04 16:13:39;;;;;;;4.28;1.40;;;;;;;;;;4951571;28;20519;-69
2022/09/04 16:16:16;;;;;;;3.80;1.33;;;;;;;;;;4936532;28;20059;-68
2022/09/04 16:19:07;;;;;;;5.55;1.63;;;;;;;;;;4933038;29;20408;-69
2022/09/04 16:21:39;;;;;;;3.85;1.60;;;;;;;;;;4932989;29;20055;-70
2022/09/04 16:24:20;;;;;;;4.50;1.17;;;;;;;;;;4890947;29;20056;-70
2022/09/04 16:26:53;;;;;;;3.63;1.10;;;;;;;;;;4883040;29;20064;-69
2022/09/04 16:29:35;;;;;;;2.97;1.00;;;;;;;;;;4914319;29;20063;-69
2022/09/04 16:32:11;;;;;;;3.53;1.27;;;;;;;;;;4913975;29;20062;-68
2022/09/04 16:35:18;;;;;;;5.53;1.42;;;;;;;;;;4943990;28;20069;-68
2022/09/04 16:38:13;;;;;;;7.55;2.13;;;;;;;;;;4933021;29;20059;-68
2022/09/04 16:41:10;;;;;;;2.05;1.08;;;;;;;;;;4954885;28;20063;-68
2022/09/04 16:44:12;;;;;;;2.67;0.95;;;;;;;;;;4971459;28;20062;-69
2022/09/04 16:47:06;;;;;;;3.90;1.27;;;;;;;;;;4971313;28;20522;-70
2022/09/04 16:50:13;;;;;;;4.72;1.40;;;;;;;;;;4951631;28;20055;-68
2022/09/04 16:52:53;;;;;;;5.40;1.10;;;;;;;;;;4932434;29;20047;-67
2022/09/04 16:55:52;;;;;;;3.38;1.38;;;;;;;;;;4900634;29;20055;-68
2022/09/04 16:58:38;;;;;;;4.10;1.10;;;;;;;;;;4901048;29;20051;-67
2022/09/04 17:01:37;;;;;;;4.28;1.23;;;;;;;;;;4932519;29;20059;-67
2022/09/04 17:04:36;;;;;;;4.07;1.05;;;;;;;;;;4948292;29;20642;-71
2022/09/04 17:07:09;;;;;;;4.68;1.70;;;;;;;;;;4928406;29;20060;-69
2022/09/04 17:10:27;;;;;;;2.05;0.80;;;;;;;;;;4897425;29;20056;-70